createdAt,value
2022-11-22T00:00:40.384Z,15.5
2022-11-22T00:04:40.396Z,15.23
2022-11-22T00:08:39.699Z,15.1
2022-11-22T00:12:41.007Z,14.83
2022-11-22T00:16:40.611Z,15.27
2022-11-22T00:20:39.565Z,14.77
2022-11-22T00:24:40.565Z,17.83
2022-11-22T00:28:40.577Z,14.27
2022-11-22T00:32:40.566Z,13.2
2022-11-22T00:36:41.258Z,14.07
2022-11-22T00:40:40.453Z,14.17
2022-11-22T00:44:40.409Z,12.57
2022-11-22T00:48:40.408Z,14.5
2022-11-22T00:52:40.414Z,13.87
2022-11-22T00:56:41.036Z,14.23
2022-11-22T01:00:40.524Z,16.13
2022-11-22T01:04:40.459Z,14.13
2022-11-22T01:08:40.639Z,15.47
2022-11-22T01:12:40.522Z,15.13
2022-11-22T01:16:39.314Z,14.87
2022-11-22T01:20:40.634Z,15.2
2022-11-22T01:24:40.507Z,16.23
2022-11-22T01:28:40.564Z,18.17
2022-11-22T01:32:40.592Z,16.2
2022-11-22T01:36:40.431Z,16.2
2022-11-22T01:40:40.547Z,18.93
2022-11-22T01:44:40.457Z,17.87
2022-11-22T01:48:40.577Z,17
2022-11-22T01:52:40.446Z,16.13
2022-11-22T01:56:40.597Z,14.87
2022-11-22T02:00:40.882Z,16.3
2022-11-22T02:04:40.472Z,18.97
2022-11-22T02:08:40.617Z,17.97
2022-11-22T02:12:40.784Z,17.7
2022-11-22T02:16:40.623Z,19.17
2022-11-22T02:20:40.669Z,20.57
2022-11-22T02:24:40.410Z,16.7
2022-11-22T02:28:40.464Z,19.37
2022-11-22T02:32:40.557Z,21.67
2022-11-22T02:36:40.472Z,21.93
2022-11-22T02:40:40.487Z,20
2022-11-22T02:44:40.472Z,21.97
2022-11-22T02:48:40.458Z,21.7
2022-11-22T02:52:40.447Z,22.17
2022-11-22T02:56:40.377Z,20.9
2022-11-22T03:00:39.752Z,21
2022-11-22T03:04:40.435Z,22.7
2022-11-22T03:08:41.241Z,21.03
2022-11-22T03:12:40.537Z,21.07
2022-11-22T03:16:41.113Z,19.53
2022-11-22T03:20:41.138Z,21.8
2022-11-22T03:24:40.382Z,20.83
2022-11-22T03:28:40.443Z,22.33
2022-11-22T03:32:40.474Z,20.2
2022-11-22T03:36:40.264Z,22.6
2022-11-22T03:40:40.458Z,22.43
2022-11-22T03:44:40.027Z,18.63
2022-11-22T03:48:41.230Z,19.37
2022-11-22T03:52:40.893Z,20.97
2022-11-22T03:56:40.358Z,17.6
2022-11-22T04:00:40.493Z,22.9
2022-11-22T04:04:40.799Z,24.13
2022-11-22T04:08:40.621Z,19.07
2022-11-22T04:12:40.687Z,26.4
2022-11-22T04:16:40.481Z,26.73
2022-11-22T04:20:40.603Z,30.97
2022-11-22T04:24:40.475Z,27.33
2022-11-22T04:29:08.097Z,31.7
2022-11-22T04:32:40.466Z,26.53
2022-11-22T04:36:40.563Z,26.97
2022-11-22T04:40:39.644Z,23.87
2022-11-22T04:44:40.920Z,22.93
2022-11-22T04:48:40.431Z,26.07
2022-11-22T04:52:40.419Z,23.37
2022-11-22T04:56:39.657Z,22.43
2022-11-22T05:00:41.338Z,25.53
2022-11-22T05:04:40.418Z,21.83
2022-11-22T05:08:40.454Z,24.17
2022-11-22T05:12:40.267Z,25.03
2022-11-22T05:16:40.270Z,24.5
2022-11-22T05:20:40.471Z,22.43
2022-11-22T05:24:40.460Z,23.27
2022-11-22T05:28:40.580Z,26.5
2022-11-22T05:32:40.439Z,22.63
2022-11-22T05:36:41.181Z,23.37
2022-11-22T05:40:40.770Z,24.53
2022-11-22T05:44:40.538Z,28.13
2022-11-22T05:48:40.453Z,23.13
2022-11-22T05:52:39.426Z,27.1
2022-11-22T05:56:39.765Z,27.37
2022-11-22T06:00:40.630Z,22.2
2022-11-22T06:04:40.409Z,32
2022-11-22T06:08:40.329Z,27.67
2022-11-22T06:12:40.494Z,27.77
2022-11-22T06:16:40.465Z,28.97
2022-11-22T06:20:40.573Z,33.8
2022-11-22T06:24:40.438Z,29.07
2022-11-22T06:28:40.379Z,29.77
2022-11-22T06:32:40.536Z,26.6
2022-11-22T06:36:40.581Z,25.13
2022-11-22T06:40:40.324Z,24.83
2022-11-22T06:44:40.479Z,23.93
2022-11-22T06:48:40.149Z,23.77
2022-11-22T06:52:40.894Z,22.7
2022-11-22T06:56:41.218Z,20.87
2022-11-22T07:00:40.916Z,22.63
2022-11-22T07:05:02.411Z,20.37
2022-11-22T07:08:40.473Z,22.43
2022-11-22T07:12:40.675Z,24.2
2022-11-22T07:16:40.388Z,24
2022-11-22T07:20:41.188Z,22.93
2022-11-22T07:24:40.457Z,22.57
2022-11-22T07:28:40.493Z,21.4
2022-11-22T07:32:39.714Z,19.1
2022-11-22T07:36:41.161Z,19.33
2022-11-22T07:40:40.454Z,17.63
2022-11-22T07:44:40.016Z,22.07
2022-11-22T07:48:40.740Z,19.6
2022-11-22T07:52:40.455Z,25.97
2022-11-22T07:56:40.454Z,18.77
2022-11-22T08:00:40.738Z,22.4
2022-11-22T08:04:40.106Z,19.5
2022-11-22T08:08:41.080Z,15.57
2022-11-22T08:12:40.644Z,20.17
2022-11-22T08:16:40.480Z,18.3
2022-11-22T08:20:40.443Z,18.7
2022-11-22T08:24:40.568Z,20.47
2022-11-22T08:28:40.277Z,18.07
2022-11-22T08:32:40.416Z,21.17
2022-11-22T08:36:40.445Z,21.33
2022-11-22T08:40:41.307Z,21.23
2022-11-22T08:44:40.444Z,21.37
2022-11-22T08:48:40.986Z,18.77
2022-11-22T08:52:40.533Z,20.4
2022-11-22T08:56:40.508Z,19.87
2022-11-22T09:00:40.571Z,20.93
2022-11-22T09:04:40.896Z,18.8
2022-11-22T09:08:44.561Z,19.17
2022-11-22T09:12:40.885Z,18.3
2022-11-22T09:16:40.315Z,21.67
2022-11-22T09:20:40.624Z,19.43
2022-11-22T09:24:41.272Z,16.13
2022-11-22T09:28:40.787Z,19.7
2022-11-22T09:32:39.935Z,19.93
2022-11-22T09:36:40.623Z,20.63
2022-11-22T09:40:40.524Z,18.2
2022-11-22T09:44:40.488Z,19.07
2022-11-22T09:48:40.661Z,20.83
2022-11-22T09:52:40.850Z,21.5
2022-11-22T09:56:40.946Z,17.8
2022-11-22T10:00:40.522Z,17.47
2022-11-22T10:04:40.692Z,18.77
2022-11-22T10:08:41.220Z,15.67
2022-11-22T10:12:40.076Z,17.97
2022-11-22T10:16:40.600Z,18.2
2022-11-22T10:20:44.371Z,16.77
2022-11-22T10:24:40.561Z,17.3
2022-11-22T10:28:40.543Z,16.13
2022-11-22T10:32:40.031Z,18.1
2022-11-22T10:36:40.285Z,18.07
2022-11-22T10:40:40.468Z,17.6
2022-11-22T10:44:41.250Z,17.17
2022-11-22T10:48:40.462Z,16.73
2022-11-22T10:52:40.445Z,16.5
2022-11-22T10:56:40.419Z,13.6
2022-11-22T11:00:40.601Z,15.5
2022-11-22T11:04:40.627Z,13.97
2022-11-22T11:09:12.162Z,16.47
2022-11-22T11:12:40.513Z,16.23
2022-11-22T11:16:40.431Z,15.63
2022-11-22T11:20:40.611Z,13.4
2022-11-22T11:24:40.301Z,16.53
2022-11-22T11:28:39.653Z,15.97
2022-11-22T11:32:40.567Z,17.2
2022-11-22T11:36:40.612Z,18.1
2022-11-22T11:40:41.136Z,15.83
2022-11-22T11:44:40.592Z,16.53
2022-11-22T11:48:39.733Z,16.2
2022-11-22T11:52:40.464Z,16.3
2022-11-22T11:56:40.559Z,16.7
2022-11-22T12:00:40.548Z,16.8
2022-11-22T12:04:40.440Z,16.2
2022-11-22T12:08:40.330Z,18.1
2022-11-22T12:12:40.539Z,17.93
2022-11-22T12:16:40.397Z,18.47
2022-11-22T12:20:40.840Z,16.6
2022-11-22T12:24:52.573Z,17.73
2022-11-22T12:28:40.524Z,17.07
2022-11-22T12:32:40.494Z,15.37
2022-11-22T12:36:40.400Z,18.3
2022-11-22T12:40:40.456Z,13.97
2022-11-22T12:44:40.480Z,16.57
2022-11-22T12:48:44.475Z,15.4
2022-11-22T12:52:40.427Z,16.53
2022-11-22T12:56:40.430Z,15.2
2022-11-22T13:00:40.650Z,17.1
2022-11-22T13:04:40.718Z,16.07
2022-11-22T13:08:40.435Z,16.23
2022-11-22T13:12:40.622Z,16.9
2022-11-22T13:16:40.518Z,17.73
2022-11-22T13:20:43.289Z,15.93
2022-11-22T13:24:41.043Z,17.73
2022-11-22T13:28:39.572Z,13.87
2022-11-22T13:32:40.961Z,15.2
2022-11-22T13:36:40.424Z,17.2
2022-11-22T13:40:40.686Z,16.3
2022-11-22T13:44:41.279Z,17.4
2022-11-22T13:48:40.525Z,18.7
2022-11-22T13:52:40.428Z,18.2
2022-11-22T13:56:40.438Z,15.93
2022-11-22T14:00:40.678Z,16.53
2022-11-22T14:04:40.482Z,16.4
2022-11-22T14:08:40.440Z,18.2
2022-11-22T14:12:40.421Z,16.9
2022-11-22T14:16:40.284Z,15.07
2022-11-22T14:20:41.227Z,18.23
2022-11-22T14:24:41.047Z,20.33
2022-11-22T14:28:40.757Z,19.27
2022-11-22T14:32:40.561Z,17.63
2022-11-22T14:36:40.528Z,17.83
2022-11-22T14:40:40.454Z,18.83
2022-11-22T14:44:40.461Z,19.67
2022-11-22T14:48:39.537Z,20.67
2022-11-22T14:52:40.193Z,19.63
2022-11-22T14:56:40.388Z,20.67
2022-11-22T15:00:40.812Z,16.1
2022-11-22T15:09:11.234Z,21.2
2022-11-22T15:09:20.276Z,19.83
2022-11-22T15:12:39.849Z,21.23
2022-11-22T16:00:40.817Z,20.93
2022-11-22T16:04:39.263Z,20.1
2022-11-22T16:08:40.003Z,23.57
2022-11-22T16:12:40.465Z,23.97
2022-11-22T16:16:40.464Z,22.97
2022-11-22T16:20:40.577Z,21.53
2022-11-22T16:24:40.496Z,22.03
2022-11-22T16:28:39.611Z,23.63
2022-11-22T16:32:41.083Z,19.77
2022-11-22T16:36:40.320Z,20.23
2022-11-22T16:40:40.948Z,22.37
2022-11-22T16:44:41.038Z,22.5
2022-11-22T16:48:41.097Z,20.1
2022-11-22T16:52:39.974Z,22.73
2022-11-22T16:56:40.419Z,21.57
2022-11-22T17:00:41.113Z,21.23
2022-11-22T17:04:41.263Z,22.07
2022-11-22T17:08:39.716Z,21.67
2022-11-22T17:12:39.897Z,23.2
2022-11-22T17:16:40.493Z,24.13
2022-11-22T17:20:41.044Z,21.83
2022-11-22T17:24:39.746Z,22.33
2022-11-22T17:28:40.434Z,25.4
2022-11-22T17:32:40.041Z,23.33
2022-11-22T17:36:40.550Z,23.07
2022-11-22T17:40:40.850Z,21.37
2022-11-22T17:44:41.128Z,23.97
2022-11-22T17:48:39.868Z,22.43
2022-11-22T17:52:40.004Z,22.1
2022-11-22T17:56:40.494Z,23.33
2022-11-22T18:00:40.835Z,27.53
2022-11-22T18:04:40.423Z,23.93
2022-11-22T18:08:46.384Z,21.23
2022-11-22T18:12:58.733Z,22.97
2022-11-22T18:16:40.370Z,22.23
2022-11-22T18:20:41.128Z,24.07
2022-11-22T18:24:41.123Z,21.7
2022-11-22T18:28:40.796Z,22.2
2022-11-22T18:32:40.030Z,22.5
2022-11-22T18:37:04.489Z,22.07
2022-11-22T18:40:40.528Z,23.77
2022-11-22T18:44:40.438Z,22.67
2022-11-22T18:48:39.580Z,22.07
2022-11-22T18:52:40.851Z,22.7
2022-11-22T18:56:40.967Z,22.6
2022-11-22T19:00:41.204Z,24.17
2022-11-22T19:04:41.168Z,22.6
2022-11-22T19:08:39.638Z,23.57
2022-11-22T19:12:40.009Z,23.83
2022-11-22T19:16:40.451Z,21.43
2022-11-22T19:20:54.762Z,23.97
2022-11-22T19:24:42.513Z,24.07
2022-11-22T19:28:40.623Z,25.93
2022-11-22T19:32:40.477Z,22.43
2022-11-22T19:36:41.043Z,24.3
2022-11-22T19:40:40.338Z,23.5
2022-11-22T19:44:41.300Z,23.47
2022-11-22T19:48:46.698Z,25.33
2022-11-22T19:52:40.310Z,24.57
2022-11-22T19:56:40.448Z,22.43
2022-11-22T20:00:40.667Z,22.6
2022-11-22T20:04:40.586Z,22.6
2022-11-22T20:08:40.262Z,22.17
2022-11-22T20:12:40.447Z,24.6
2022-11-22T20:16:40.547Z,23.37
2022-11-22T20:20:40.824Z,22.73
2022-11-22T20:24:41.305Z,25.07
2022-11-22T20:28:39.745Z,25.53
2022-11-22T20:32:40.639Z,23.1
2022-11-22T20:36:40.380Z,23.7
2022-11-22T20:40:40.903Z,24.27
2022-11-22T20:44:40.907Z,24.57
2022-11-22T20:48:39.556Z,27.1
2022-11-22T20:52:40.042Z,24.57
2022-11-22T20:56:40.283Z,24.2
2022-11-22T21:00:40.696Z,25.7
2022-11-22T21:04:40.424Z,22.2
2022-11-22T21:08:41.005Z,22.1
2022-11-22T21:12:39.873Z,22.63
2022-11-22T21:16:40.506Z,24.87
2022-11-22T21:20:41.089Z,23.47
2022-11-22T21:24:40.491Z,25.8
2022-11-22T21:28:40.466Z,24.93
2022-11-22T21:32:40.503Z,25.87
2022-11-22T21:36:40.646Z,25.47
2022-11-22T21:40:41.031Z,24.83
2022-11-22T21:44:40.428Z,26.17
2022-11-22T21:48:40.857Z,26.47
2022-11-22T21:52:39.382Z,25.93
2022-11-22T21:56:41.202Z,24.77
2022-11-22T22:00:39.746Z,25.37
2022-11-22T22:04:40.828Z,24.63
2022-11-22T22:08:41.011Z,27.4
2022-11-22T22:12:40.482Z,25.7
2022-11-22T22:16:40.435Z,25.37
2022-11-22T22:20:40.820Z,27.43
2022-11-22T22:24:40.591Z,26.23
2022-11-22T22:28:40.447Z,25.63
2022-11-22T22:32:40.521Z,28.57
2022-11-22T22:36:40.421Z,24.13
2022-11-22T22:40:40.422Z,25.33
2022-11-22T22:44:40.500Z,26.73
2022-11-22T22:48:40.453Z,25.1
2022-11-22T22:52:40.450Z,25.97
2022-11-22T22:56:40.668Z,27.1
2022-11-22T23:00:39.859Z,25.2
2022-11-22T23:04:40.815Z,23.47
2022-11-22T23:08:40.438Z,25.2
2022-11-22T23:12:40.288Z,27.47
2022-11-22T23:16:41.184Z,26.3
2022-11-22T23:20:40.433Z,28.6
2022-11-22T23:24:40.262Z,27.27
2022-11-22T23:28:40.568Z,26.73
2022-11-22T23:32:40.439Z,26.03
2022-11-22T23:36:41.318Z,27.23
2022-11-22T23:40:40.504Z,24.87
2022-11-22T23:44:40.581Z,27.53
2022-11-22T23:48:40.446Z,25.07
2022-11-22T23:52:40.445Z,23.07
2022-11-22T23:56:40.503Z,25.5
